createdAt,value
2023-02-24T00:00:34.179Z,6.21
2023-02-24T00:01:34.162Z,6.21
2023-02-24T00:02:34.304Z,6.21
2023-02-24T00:03:34.354Z,6.21
2023-02-24T00:04:34.269Z,6.21
2023-02-24T00:05:34.303Z,6.21
2023-02-24T00:06:34.336Z,6.21
2023-02-24T00:07:34.377Z,6.22
2023-02-24T00:08:34.390Z,6.21
2023-02-24T00:09:34.433Z,6.21
2023-02-24T00:10:34.472Z,6.22
2023-02-24T00:11:34.500Z,6.22
2023-02-24T00:12:34.533Z,6.21
2023-02-24T00:13:34.566Z,6.2
2023-02-24T00:14:34.617Z,6.2
2023-02-24T00:15:34.650Z,6.2
2023-02-24T00:16:34.804Z,6.21
2023-02-24T00:17:34.709Z,6.21
2023-02-24T00:18:34.739Z,6.21
2023-02-24T00:19:34.789Z,6.21
2023-02-24T00:20:34.821Z,6.2
2023-02-24T00:21:34.840Z,6.19
2023-02-24T00:22:34.876Z,6.2
2023-02-24T00:23:34.919Z,6.14
2023-02-24T00:24:34.947Z,6.13
2023-02-24T00:25:34.983Z,6.08
2023-02-24T00:26:35.019Z,6.03
2023-02-24T00:27:35.073Z,6
2023-02-24T00:28:35.098Z,5.98
2023-02-24T00:29:35.125Z,5.95
2023-02-24T00:30:35.164Z,5.95
2023-02-24T00:31:35.265Z,5.95
2023-02-24T00:32:35.451Z,5.93
2023-02-24T00:33:35.259Z,5.92
2023-02-24T00:34:35.308Z,5.9
2023-02-24T00:35:35.336Z,5.9
2023-02-24T00:36:35.370Z,5.86
2023-02-24T00:37:35.434Z,5.83
2023-02-24T00:38:35.457Z,5.77
2023-02-24T00:39:35.501Z,5.77
2023-02-24T00:40:35.509Z,5.78
2023-02-24T00:41:35.547Z,5.75
2023-02-24T00:42:35.586Z,5.73
2023-02-24T00:43:35.625Z,5.72
2023-02-24T00:44:35.653Z,5.71
2023-02-24T00:45:35.679Z,5.7
2023-02-24T00:46:35.837Z,5.67
2023-02-24T00:47:35.753Z,5.64
2023-02-24T00:48:35.807Z,5.66
2023-02-24T00:49:36.002Z,5.66
2023-02-24T00:50:35.877Z,5.65
2023-02-24T00:51:35.895Z,5.66
2023-02-24T00:52:35.926Z,5.63
2023-02-24T00:53:35.964Z,5.58
2023-02-24T00:54:36.003Z,5.46
2023-02-24T00:55:36.038Z,5.38
2023-02-24T00:56:36.088Z,5.32
2023-02-24T00:57:36.110Z,5.3
2023-02-24T00:58:36.137Z,5.29
2023-02-24T00:59:36.189Z,5.26
2023-02-24T01:00:36.198Z,5.25
2023-02-24T01:01:36.304Z,5.21
2023-02-24T01:02:36.277Z,5.16
2023-02-24T01:03:36.337Z,5.15
2023-02-24T01:04:36.339Z,5.12
2023-02-24T01:05:36.375Z,5.12
2023-02-24T01:06:36.456Z,5.13
2023-02-24T01:07:36.450Z,5.12
2023-02-24T01:08:36.491Z,5.1
2023-02-24T01:09:36.526Z,5.07
2023-02-24T01:10:36.569Z,5.04
2023-02-24T01:11:36.631Z,5.03
2023-02-24T01:12:36.625Z,5.04
2023-02-24T01:13:36.654Z,5.04
2023-02-24T01:14:36.694Z,5.03
2023-02-24T01:15:36.721Z,5.01
2023-02-24T01:16:36.748Z,5.03
2023-02-24T01:17:36.784Z,5.02
2023-02-24T01:18:36.818Z,5.02
2023-02-24T01:19:36.856Z,4.99
2023-02-24T01:20:36.899Z,5
2023-02-24T01:21:36.926Z,4.98
2023-02-24T01:22:36.980Z,4.98
2023-02-24T01:23:37.014Z,4.91
2023-02-24T01:24:37.028Z,4.9
2023-02-24T01:25:37.062Z,4.89
2023-02-24T01:26:37.106Z,4.88
2023-02-24T01:27:37.195Z,4.87
2023-02-24T01:28:37.176Z,4.87
2023-02-24T01:29:37.206Z,4.84
2023-02-24T01:30:37.247Z,4.86
2023-02-24T01:31:37.424Z,4.88
2023-02-24T01:32:37.483Z,4.89
2023-02-24T01:33:37.341Z,4.87
2023-02-24T01:34:37.367Z,4.84
2023-02-24T01:35:37.411Z,4.76
2023-02-24T01:36:37.442Z,4.72
2023-02-24T01:37:37.475Z,4.64
2023-02-24T01:38:37.508Z,4.63
2023-02-24T01:39:37.542Z,4.58
2023-02-24T01:40:37.573Z,4.58
2023-02-24T01:41:37.611Z,4.58
2023-02-24T01:42:37.647Z,4.58
2023-02-24T01:43:37.664Z,4.6
2023-02-24T01:44:37.700Z,4.61
2023-02-24T01:45:37.727Z,4.59
2023-02-24T01:46:37.799Z,4.58
2023-02-24T01:47:37.801Z,4.57
2023-02-24T01:48:37.832Z,4.54
2023-02-24T01:49:37.911Z,4.53
2023-02-24T01:50:37.919Z,4.53
2023-02-24T01:51:37.945Z,4.53
2023-02-24T01:52:37.974Z,4.54
2023-02-24T01:53:38.001Z,4.55
2023-02-24T01:54:38.040Z,4.55
2023-02-24T01:55:38.078Z,4.51
2023-02-24T01:56:38.109Z,4.51
2023-02-24T01:57:38.141Z,4.5
2023-02-24T01:58:38.198Z,4.48
2023-02-24T01:59:38.228Z,4.47
2023-02-24T02:00:38.415Z,4.44
2023-02-24T02:01:38.397Z,4.44
2023-02-24T02:02:38.439Z,4.41
2023-02-24T02:03:38.352Z,4.38
2023-02-24T02:04:38.390Z,4.31
2023-02-24T02:05:38.419Z,4.23
2023-02-24T02:06:38.448Z,4.21
2023-02-24T02:07:38.485Z,4.2
2023-02-24T02:08:38.531Z,4.16
2023-02-24T02:09:38.554Z,4.13
2023-02-24T02:10:38.600Z,4.14
2023-02-24T02:11:38.624Z,4.12
2023-02-24T02:12:38.656Z,4.11
2023-02-24T02:13:38.774Z,4.09
2023-02-24T02:14:38.718Z,4.02
2023-02-24T02:15:38.758Z,4
2023-02-24T02:16:38.781Z,3.95
2023-02-24T02:17:38.809Z,3.98
2023-02-24T02:18:38.849Z,3.97
2023-02-24T02:19:38.881Z,3.95
2023-02-24T02:20:38.927Z,3.93
2023-02-24T02:21:38.952Z,3.9
2023-02-24T02:22:38.998Z,3.91
2023-02-24T02:23:39.023Z,3.92
2023-02-24T02:24:39.054Z,3.88
2023-02-24T02:25:39.093Z,3.87
2023-02-24T02:26:39.132Z,3.88
2023-02-24T02:27:39.162Z,3.89
2023-02-24T02:28:39.196Z,3.92
2023-02-24T02:29:39.224Z,3.91
2023-02-24T02:30:39.308Z,3.91
2023-02-24T02:31:39.526Z,3.88
2023-02-24T02:32:39.483Z,3.84
2023-02-24T02:33:39.381Z,3.86
2023-02-24T02:34:39.415Z,3.86
2023-02-24T02:35:39.447Z,3.89
2023-02-24T02:36:39.478Z,3.91
2023-02-24T02:37:41.254Z,3.92
2023-02-24T02:38:39.541Z,3.92
2023-02-24T02:39:39.574Z,3.93
2023-02-24T02:40:39.607Z,3.96
2023-02-24T02:41:39.639Z,3.95
2023-02-24T02:42:39.674Z,3.96
2023-02-24T02:43:39.716Z,3.96
2023-02-24T02:44:39.801Z,3.96
2023-02-24T02:45:39.797Z,3.96
2023-02-24T02:46:39.805Z,3.97
2023-02-24T02:47:39.841Z,3.96
2023-02-24T02:48:39.872Z,3.97
2023-02-24T02:49:39.908Z,3.99
2023-02-24T02:50:39.941Z,3.99
2023-02-24T02:51:39.973Z,3.99
2023-02-24T02:52:40.013Z,3.99
2023-02-24T02:53:40.048Z,3.98
2023-02-24T02:54:40.082Z,3.99
2023-02-24T02:55:40.120Z,3.98
2023-02-24T02:56:40.142Z,3.96
2023-02-24T02:57:40.183Z,3.92
2023-02-24T02:58:40.209Z,3.91
2023-02-24T02:59:40.240Z,3.91
2023-02-24T03:00:40.293Z,3.92
2023-02-24T03:01:40.310Z,3.92
2023-02-24T03:02:40.342Z,3.9
2023-02-24T03:03:40.382Z,3.89
2023-02-24T03:04:40.427Z,3.85
2023-02-24T03:05:40.439Z,3.85
2023-02-24T03:06:40.466Z,3.86
2023-02-24T03:07:40.508Z,3.86
2023-02-24T03:08:40.549Z,3.85
2023-02-24T03:09:40.575Z,3.85
2023-02-24T03:10:40.610Z,3.84
2023-02-24T03:11:40.636Z,3.84
2023-02-24T03:12:40.669Z,3.83
2023-02-24T03:13:40.698Z,3.82
2023-02-24T03:14:40.728Z,3.85
2023-02-24T03:15:40.795Z,3.85
2023-02-24T03:16:40.922Z,3.86
2023-02-24T03:17:40.833Z,3.87
2023-02-24T03:18:40.875Z,3.86
2023-02-24T03:19:40.913Z,3.86
2023-02-24T03:20:40.935Z,3.85
2023-02-24T03:21:40.970Z,3.85
2023-02-24T03:22:40.998Z,3.85
2023-02-24T03:23:41.038Z,3.85
2023-02-24T03:24:41.074Z,3.85
2023-02-24T03:25:41.102Z,3.85
2023-02-24T03:26:41.162Z,3.84
2023-02-24T03:27:41.164Z,3.85
2023-02-24T03:28:41.196Z,3.85
2023-02-24T03:29:41.228Z,3.78
2023-02-24T03:30:41.311Z,3.79
2023-02-24T03:31:41.426Z,3.79
2023-02-24T03:32:41.488Z,3.81
2023-02-24T03:33:41.369Z,3.83
2023-02-24T03:34:41.395Z,3.8
2023-02-24T03:35:41.429Z,3.79
2023-02-24T03:36:41.460Z,3.79
2023-02-24T03:37:41.499Z,3.77
2023-02-24T03:38:41.528Z,3.77
2023-02-24T03:39:41.570Z,3.79
2023-02-24T03:40:41.602Z,3.8
2023-02-24T03:41:41.625Z,3.8
2023-02-24T03:42:41.662Z,3.8
2023-02-24T03:43:41.689Z,3.79
2023-02-24T03:44:41.723Z,3.79
2023-02-24T03:45:41.940Z,3.81
2023-02-24T03:46:41.802Z,3.79
2023-02-24T03:47:41.829Z,3.78
2023-02-24T03:48:41.866Z,3.77
2023-02-24T03:49:41.905Z,3.78
2023-02-24T03:50:41.938Z,3.78
2023-02-24T03:51:41.979Z,3.8
2023-02-24T03:52:42.019Z,3.8
2023-02-24T03:53:42.052Z,3.8
2023-02-24T03:54:42.085Z,3.82
2023-02-24T03:55:42.112Z,3.82
2023-02-24T03:56:42.138Z,3.82
2023-02-24T03:57:42.205Z,3.82
2023-02-24T03:58:42.212Z,3.82
2023-02-24T03:59:42.250Z,3.8
2023-02-24T04:00:42.292Z,3.8
2023-02-24T04:01:42.331Z,3.81
2023-02-24T04:02:42.407Z,3.81
2023-02-24T04:03:42.391Z,3.78
2023-02-24T04:04:42.451Z,3.82
2023-02-24T04:05:42.442Z,3.82
2023-02-24T04:06:42.482Z,3.81
2023-02-24T04:07:42.511Z,3.84
2023-02-24T04:08:42.546Z,3.83
2023-02-24T04:09:42.576Z,3.8
2023-02-24T04:10:42.716Z,3.81
2023-02-24T04:11:42.653Z,3.78
2023-02-24T04:12:42.738Z,3.77
2023-02-24T04:13:42.714Z,3.77
2023-02-24T04:14:42.754Z,3.75
2023-02-24T04:15:42.816Z,3.77
2023-02-24T04:16:42.806Z,3.75
2023-02-24T04:17:42.847Z,3.73
2023-02-24T04:18:42.874Z,3.72
2023-02-24T04:19:42.911Z,3.73
2023-02-24T04:20:42.962Z,3.73
2023-02-24T04:21:42.985Z,3.73
2023-02-24T04:22:43.028Z,3.73
2023-02-24T04:23:43.049Z,3.74
2023-02-24T04:24:43.108Z,3.75
2023-02-24T04:25:43.116Z,3.76
2023-02-24T04:26:43.163Z,3.77
2023-02-24T04:27:43.200Z,3.75
2023-02-24T04:28:43.230Z,3.75
2023-02-24T04:29:43.263Z,3.74
2023-02-24T04:30:43.395Z,3.74
2023-02-24T04:31:43.666Z,3.73
2023-02-24T04:32:43.373Z,3.72
2023-02-24T04:33:43.400Z,3.73
2023-02-24T04:34:43.435Z,3.73
2023-02-24T04:35:43.462Z,3.73
2023-02-24T04:36:43.505Z,3.72
2023-02-24T04:37:43.523Z,3.72
2023-02-24T04:38:43.561Z,3.74
2023-02-24T04:39:43.587Z,3.7
2023-02-24T04:40:43.640Z,3.7
2023-02-24T04:41:43.667Z,3.71
2023-02-24T04:42:43.702Z,3.72
2023-02-24T04:43:43.738Z,3.71
2023-02-24T04:44:43.767Z,3.74
2023-02-24T04:45:43.810Z,3.76
2023-02-24T04:46:43.861Z,3.75
2023-02-24T04:47:43.872Z,3.73
2023-02-24T04:48:43.901Z,3.7
2023-02-24T04:49:43.936Z,3.75
2023-02-24T04:50:43.978Z,3.71
2023-02-24T04:51:43.990Z,3.72
2023-02-24T04:52:44.024Z,3.69
2023-02-24T04:53:44.061Z,3.69
2023-02-24T04:54:44.096Z,3.69
2023-02-24T04:55:44.132Z,3.69
2023-02-24T04:56:44.177Z,3.69
2023-02-24T04:57:44.200Z,3.7
2023-02-24T04:58:44.248Z,3.71
2023-02-24T04:59:44.274Z,3.71
2023-02-24T05:00:44.304Z,3.68
2023-02-24T05:01:44.351Z,3.69
2023-02-24T05:02:44.367Z,3.68
2023-02-24T05:03:44.428Z,3.66
2023-02-24T05:04:44.509Z,3.67
2023-02-24T05:05:44.454Z,3.69
2023-02-24T05:06:44.493Z,3.69
2023-02-24T05:07:44.509Z,3.67
2023-02-24T05:08:44.552Z,3.67
2023-02-24T05:09:44.590Z,3.67
2023-02-24T05:10:44.663Z,3.67
2023-02-24T05:11:44.662Z,3.68
2023-02-24T05:12:44.698Z,3.69
2023-02-24T05:13:44.744Z,3.7
2023-02-24T05:14:44.774Z,3.7
2023-02-24T05:15:44.802Z,3.7
2023-02-24T05:16:44.846Z,3.71
2023-02-24T05:17:44.875Z,3.72
2023-02-24T05:18:44.921Z,3.71
2023-02-24T05:19:44.945Z,3.7
2023-02-24T05:20:44.980Z,3.71
2023-02-24T05:21:45.013Z,3.72
2023-02-24T05:22:45.044Z,3.7
2023-02-24T05:23:45.080Z,3.68
2023-02-24T05:24:45.107Z,3.68
2023-02-24T05:25:45.134Z,3.68
2023-02-24T05:26:45.186Z,3.67
2023-02-24T05:27:45.216Z,3.67
2023-02-24T05:28:45.241Z,3.65
2023-02-24T05:29:45.273Z,3.61
2023-02-24T05:30:45.359Z,3.64
2023-02-24T05:31:45.491Z,3.65
2023-02-24T05:32:45.417Z,3.63
2023-02-24T05:33:45.400Z,3.62
2023-02-24T05:34:45.424Z,3.62
2023-02-24T05:35:45.484Z,3.63
2023-02-24T05:36:45.497Z,3.64
2023-02-24T05:37:45.521Z,3.65
2023-02-24T05:38:45.558Z,3.65
2023-02-24T05:39:45.572Z,3.65
2023-02-24T05:40:45.610Z,3.64
2023-02-24T05:41:45.649Z,3.64
2023-02-24T05:42:45.676Z,3.65
2023-02-24T05:43:45.710Z,3.66
2023-02-24T05:44:45.739Z,3.66
2023-02-24T05:45:45.764Z,3.67
2023-02-24T05:46:45.904Z,3.68
2023-02-24T05:47:45.847Z,3.67
2023-02-24T05:48:45.896Z,3.66
2023-02-24T05:49:45.925Z,3.65
2023-02-24T05:50:45.949Z,3.66
2023-02-24T05:51:46.000Z,3.63
2023-02-24T05:52:46.050Z,3.62
2023-02-24T05:53:46.054Z,3.61
2023-02-24T05:54:46.085Z,3.61
2023-02-24T05:55:46.123Z,3.65
2023-02-24T05:56:46.154Z,3.64
2023-02-24T05:57:46.181Z,3.61
2023-02-24T05:58:46.227Z,3.63
2023-02-24T05:59:46.255Z,3.64
2023-02-24T06:00:46.295Z,3.65
2023-02-24T06:01:46.324Z,3.65
2023-02-24T06:02:46.390Z,3.64
2023-02-24T06:03:46.395Z,3.63
2023-02-24T06:04:46.431Z,3.64
2023-02-24T06:05:46.452Z,3.64
2023-02-24T06:06:46.496Z,3.64
2023-02-24T06:07:46.533Z,3.63
2023-02-24T06:08:46.569Z,3.63
2023-02-24T06:09:46.598Z,3.64
2023-02-24T06:10:46.641Z,3.62
2023-02-24T06:11:46.771Z,3.64
2023-02-24T06:12:46.713Z,3.62
2023-02-24T06:13:46.742Z,3.61
2023-02-24T06:14:46.782Z,3.61
2023-02-24T06:15:46.802Z,3.61
2023-02-24T06:16:46.882Z,3.61
2023-02-24T06:17:46.874Z,3.6
2023-02-24T06:18:46.909Z,3.62
2023-02-24T06:19:47.040Z,3.62
2023-02-24T06:20:46.979Z,3.62
2023-02-24T06:21:46.999Z,3.63
2023-02-24T06:22:47.042Z,3.61
2023-02-24T06:23:47.080Z,3.61
2023-02-24T06:24:47.119Z,3.61
2023-02-24T06:25:47.144Z,3.6
2023-02-24T06:26:47.183Z,3.6
2023-02-24T06:27:47.218Z,3.6
2023-02-24T06:28:47.244Z,3.61
2023-02-24T06:29:47.296Z,3.61
2023-02-24T06:30:47.355Z,3.6
2023-02-24T06:31:47.498Z,3.59
2023-02-24T06:32:47.508Z,3.58
2023-02-24T06:33:47.416Z,3.6
2023-02-24T06:34:47.447Z,3.59
2023-02-24T06:35:47.476Z,3.58
2023-02-24T06:36:47.513Z,3.56
2023-02-24T06:37:47.560Z,3.58
2023-02-24T06:38:47.591Z,3.58
2023-02-24T06:39:47.631Z,3.55
2023-02-24T06:40:47.648Z,3.56
2023-02-24T06:41:47.682Z,3.54
2023-02-24T06:42:47.712Z,3.57
2023-02-24T06:43:47.746Z,3.53
2023-02-24T06:44:47.777Z,3.51
2023-02-24T06:45:47.889Z,3.5
2023-02-24T06:46:47.837Z,3.48
2023-02-24T06:47:47.879Z,3.41
2023-02-24T06:48:47.913Z,3.45
2023-02-24T06:49:47.994Z,3.49
2023-02-24T06:50:47.973Z,3.47
2023-02-24T06:51:48.008Z,3.49
2023-02-24T06:52:48.056Z,3.5
2023-02-24T06:53:48.081Z,3.5
2023-02-24T06:54:48.100Z,3.52
2023-02-24T06:55:48.144Z,3.5
2023-02-24T06:56:48.170Z,3.49
2023-02-24T06:57:48.206Z,3.5
2023-02-24T06:58:48.238Z,3.48
2023-02-24T06:59:48.280Z,3.47
2023-02-24T07:00:48.320Z,3.45
2023-02-24T07:01:48.323Z,3.44
2023-02-24T07:02:48.365Z,3.44
2023-02-24T07:03:48.411Z,3.43
2023-02-24T07:04:48.442Z,3.41
2023-02-24T07:05:48.466Z,3.43
2023-02-24T07:06:48.503Z,3.41
2023-02-24T07:07:48.537Z,3.39
2023-02-24T07:08:48.565Z,3.39
2023-02-24T07:09:48.601Z,3.39
2023-02-24T07:10:48.639Z,3.38
2023-02-24T07:11:48.684Z,3.36
2023-02-24T07:12:48.701Z,3.34
2023-02-24T07:13:48.737Z,3.34
2023-02-24T07:14:48.763Z,3.29
2023-02-24T07:15:48.794Z,3.27
2023-02-24T07:16:48.892Z,3.28
2023-02-24T07:17:48.860Z,3.25
2023-02-24T07:18:48.927Z,3.24
2023-02-24T07:19:48.933Z,3.25
2023-02-24T07:20:48.971Z,3.25
2023-02-24T07:21:48.990Z,3.21
2023-02-24T07:22:49.028Z,3.21
2023-02-24T07:23:49.066Z,3.22
2023-02-24T07:24:49.112Z,3.21
2023-02-24T07:25:49.145Z,3.23
2023-02-24T07:26:49.168Z,3.23
2023-02-24T07:27:49.203Z,3.22
2023-02-24T07:28:49.254Z,3.22
2023-02-24T07:29:51.220Z,3.21
2023-02-24T07:30:49.465Z,3.23
2023-02-24T07:31:49.586Z,3.23
2023-02-24T07:32:49.474Z,3.25
2023-02-24T07:33:49.408Z,3.25
2023-02-24T07:34:49.453Z,3.24
2023-02-24T07:35:49.481Z,3.27
2023-02-24T07:36:49.541Z,3.27
2023-02-24T07:37:49.550Z,3.27
2023-02-24T07:38:49.580Z,3.27
2023-02-24T07:39:49.624Z,3.29
2023-02-24T07:40:49.647Z,3.26
2023-02-24T07:41:49.783Z,3.28
2023-02-24T07:42:49.708Z,3.3
2023-02-24T07:43:49.748Z,3.31
2023-02-24T07:44:49.781Z,3.34
2023-02-24T07:45:49.850Z,3.32
2023-02-24T07:46:49.862Z,3.31
2023-02-24T07:47:49.893Z,3.31
2023-02-24T07:48:49.930Z,3.3
2023-02-24T07:49:49.965Z,3.32
2023-02-24T07:50:50.002Z,3.32
2023-02-24T07:51:50.032Z,3.36
2023-02-24T07:52:50.075Z,3.36
2023-02-24T07:53:52.316Z,3.37
2023-02-24T07:54:50.145Z,3.4
2023-02-24T07:55:50.168Z,3.42
2023-02-24T07:56:50.192Z,3.4
2023-02-24T07:57:50.229Z,3.4
2023-02-24T07:58:50.263Z,3.4
2023-02-24T07:59:50.299Z,3.44
2023-02-24T08:00:50.326Z,3.44
2023-02-24T08:01:50.350Z,3.45
2023-02-24T08:02:50.462Z,3.48
2023-02-24T08:03:50.423Z,3.51
2023-02-24T08:04:50.742Z,3.5
2023-02-24T08:05:50.573Z,3.46
2023-02-24T08:06:50.537Z,3.41
2023-02-24T08:07:50.568Z,3.4
2023-02-24T08:08:50.599Z,3.4
2023-02-24T08:09:50.641Z,3.41
2023-02-24T08:10:50.668Z,3.43
2023-02-24T08:11:50.695Z,3.43
2023-02-24T08:12:50.729Z,3.49
2023-02-24T08:13:50.753Z,3.45
2023-02-24T08:14:51.346Z,3.43
2023-02-24T08:15:50.844Z,3.46
2023-02-24T08:16:50.843Z,3.49
2023-02-24T08:17:50.872Z,3.49
2023-02-24T08:18:50.916Z,3.49
2023-02-24T08:19:50.937Z,3.48
2023-02-24T08:20:50.967Z,3.48
2023-02-24T08:21:50.998Z,3.5
2023-02-24T08:22:51.043Z,3.52
2023-02-24T08:23:51.068Z,3.53
2023-02-24T08:24:51.118Z,3.56
2023-02-24T08:25:51.151Z,3.57
2023-02-24T08:26:51.183Z,3.6
2023-02-24T08:28:05.135Z,3.59
2023-02-24T08:28:51.248Z,3.61
2023-02-24T08:29:51.286Z,3.61
2023-02-24T08:30:51.447Z,3.68
2023-02-24T08:31:51.392Z,3.61
2023-02-24T08:32:51.426Z,3.57
2023-02-24T08:33:51.408Z,3.58
2023-02-24T08:34:51.439Z,3.61
2023-02-24T08:35:51.483Z,3.64
2023-02-24T08:36:51.506Z,3.65
2023-02-24T08:37:51.552Z,3.64
2023-02-24T08:38:51.581Z,3.66
2023-02-24T08:39:51.615Z,3.68
2023-02-24T08:40:51.658Z,3.65
2023-02-24T08:41:51.674Z,3.67
2023-02-24T08:42:51.718Z,3.68
2023-02-24T08:43:51.762Z,3.72
2023-02-24T08:44:51.788Z,3.74
2023-02-24T08:45:51.824Z,3.74
2023-02-24T08:46:51.933Z,3.74
2023-02-24T08:47:51.880Z,3.78
2023-02-24T08:48:51.909Z,3.75
2023-02-24T08:49:51.947Z,3.72
2023-02-24T08:50:51.982Z,3.72
2023-02-24T08:51:52.028Z,3.74
2023-02-24T08:52:52.053Z,3.75
2023-02-24T08:53:52.085Z,3.78
2023-02-24T08:54:52.120Z,3.81
2023-02-24T08:55:52.149Z,3.81
2023-02-24T08:56:52.186Z,3.83
2023-02-24T08:57:53.719Z,3.82
2023-02-24T08:58:52.275Z,3.82
2023-02-24T08:59:52.287Z,3.79
2023-02-24T09:00:52.357Z,3.83
2023-02-24T09:02:03.635Z,3.82
2023-02-24T09:02:52.381Z,3.82
2023-02-24T09:03:52.415Z,3.82
2023-02-24T09:04:52.529Z,3.81
2023-02-24T09:05:52.474Z,3.83
2023-02-24T09:06:55.713Z,3.84
2023-02-24T09:07:52.540Z,3.87
2023-02-24T09:08:52.598Z,3.82
2023-02-24T09:09:52.627Z,3.85
2023-02-24T09:10:52.667Z,3.84
2023-02-24T09:11:52.722Z,3.81
2023-02-24T09:12:52.740Z,3.76
2023-02-24T09:13:52.765Z,3.77
2023-02-24T09:14:52.786Z,3.79
2023-02-24T09:15:52.833Z,3.78
2023-02-24T09:16:52.857Z,3.74
2023-02-24T09:17:52.899Z,3.76
2023-02-24T09:18:52.935Z,3.78
2023-02-24T09:19:52.963Z,3.78
2023-02-24T09:20:53.005Z,3.79
2023-02-24T09:21:53.028Z,3.81
2023-02-24T09:22:53.055Z,3.85
2023-02-24T09:23:53.094Z,3.85
2023-02-24T09:24:53.122Z,3.85
2023-02-24T09:25:53.156Z,3.83
2023-02-24T09:26:53.192Z,3.83
2023-02-24T09:27:53.211Z,3.81
2023-02-24T09:28:53.268Z,3.78
2023-02-24T09:29:53.290Z,3.78
2023-02-24T09:30:53.733Z,3.8
2023-02-24T09:31:53.463Z,3.8
2023-02-24T09:32:53.514Z,3.81
2023-02-24T09:33:53.437Z,3.79
2023-02-24T09:34:53.456Z,3.81
2023-02-24T09:35:53.492Z,3.79
2023-02-24T09:36:53.521Z,3.85
2023-02-24T09:37:53.561Z,3.84
2023-02-24T09:38:53.581Z,3.86
2023-02-24T09:39:53.621Z,3.85
2023-02-24T09:40:53.652Z,3.81
2023-02-24T09:41:54.314Z,3.81
2023-02-24T09:42:53.704Z,3.86
2023-02-24T09:43:53.741Z,3.81
2023-02-24T09:44:53.763Z,3.78
2023-02-24T09:45:54.033Z,3.77
2023-02-24T09:46:54.412Z,3.78
2023-02-24T09:47:53.871Z,3.78
2023-02-24T09:48:53.901Z,3.85
2023-02-24T09:49:53.943Z,3.89
2023-02-24T09:51:02.711Z,3.89
2023-02-24T09:51:54.019Z,3.89
2023-02-24T09:53:00.110Z,3.85
2023-02-24T09:53:54.082Z,3.82
2023-02-24T09:54:54.111Z,3.81
2023-02-24T09:55:54.142Z,3.82
2023-02-24T09:56:54.190Z,3.84
2023-02-24T09:57:54.214Z,3.82
2023-02-24T09:58:54.251Z,3.76
2023-02-24T09:59:54.271Z,3.76
2023-02-24T10:00:54.352Z,3.76
2023-02-24T10:01:54.362Z,3.79
2023-02-24T10:02:54.376Z,3.78
2023-02-24T10:03:54.422Z,3.81
2023-02-24T10:04:54.447Z,3.8
2023-02-24T10:05:54.471Z,3.85
2023-02-24T10:06:54.506Z,3.86
2023-02-24T10:07:54.542Z,3.86
2023-02-24T10:08:54.575Z,3.85
2023-02-24T10:09:54.623Z,3.86
2023-02-24T10:10:54.641Z,3.82
2023-02-24T10:11:54.741Z,3.84
2023-02-24T10:12:54.732Z,3.83
2023-02-24T10:13:54.750Z,3.87
2023-02-24T10:15:00.446Z,3.85
2023-02-24T10:15:57.334Z,3.86
2023-02-24T10:16:54.912Z,3.86
2023-02-24T10:17:54.879Z,3.85
2023-02-24T10:18:54.917Z,3.86
2023-02-24T10:19:54.952Z,3.86
2023-02-24T10:20:55.031Z,3.9
2023-02-24T10:21:55.006Z,3.84
2023-02-24T10:22:55.050Z,3.85
2023-02-24T10:23:55.077Z,3.84
2023-02-24T10:24:55.110Z,3.84
2023-02-24T10:25:55.185Z,3.81
2023-02-24T10:27:01.313Z,3.82
2023-02-24T10:27:55.201Z,3.8
2023-02-24T10:28:55.477Z,3.79
2023-02-24T10:29:55.267Z,3.79
2023-02-24T10:30:55.420Z,3.81
2023-02-24T10:31:55.546Z,3.83
2023-02-24T10:32:55.458Z,3.82
2023-02-24T10:33:55.407Z,3.84
2023-02-24T10:34:55.428Z,3.84
2023-02-24T10:35:55.474Z,3.84
2023-02-24T10:36:55.491Z,3.84
2023-02-24T10:37:55.534Z,3.85
2023-02-24T10:38:55.564Z,3.86
2023-02-24T10:39:55.600Z,3.87
2023-02-24T10:40:55.640Z,3.88
2023-02-24T10:41:55.712Z,3.9
2023-02-24T10:42:55.696Z,3.91
2023-02-24T10:43:55.827Z,3.95
2023-02-24T10:45:02.617Z,3.93
2023-02-24T10:45:55.821Z,3.96
2023-02-24T10:46:55.886Z,3.97
2023-02-24T10:47:55.888Z,3.98
2023-02-24T10:48:55.899Z,4.01
2023-02-24T10:49:55.924Z,4.05
2023-02-24T10:50:56.538Z,4.05
2023-02-24T10:51:56.005Z,4.05
2023-02-24T10:52:56.062Z,4.07
2023-02-24T10:53:56.088Z,4.02
2023-02-24T10:54:56.104Z,4.06
2023-02-24T10:55:56.131Z,4.04
2023-02-24T10:56:56.180Z,4.06
2023-02-24T10:57:59.163Z,4.06
2023-02-24T10:58:56.248Z,4.08
2023-02-24T10:59:56.264Z,4.09
2023-02-24T11:00:56.311Z,4.07
2023-02-24T11:01:56.378Z,4.09
2023-02-24T11:02:56.368Z,4.05
2023-02-24T11:03:56.399Z,4.06
2023-02-24T11:04:56.430Z,4.03
2023-02-24T11:05:56.485Z,4.04
2023-02-24T11:06:56.499Z,4.03
2023-02-24T11:07:56.534Z,4.06
2023-02-24T11:08:56.569Z,4.04
2023-02-24T11:09:56.591Z,4.06
2023-02-24T11:10:56.617Z,4.09
2023-02-24T11:11:56.648Z,4.08
2023-02-24T11:13:04.218Z,4.1
2023-02-24T11:13:56.713Z,4.12
2023-02-24T11:14:56.744Z,4.1
2023-02-24T11:15:56.807Z,4.1
2023-02-24T11:16:56.815Z,4.07
2023-02-24T11:17:56.978Z,4.08
2023-02-24T11:18:56.876Z,4.08
2023-02-24T11:19:56.924Z,4.08
2023-02-24T11:20:56.944Z,4.04
2023-02-24T11:21:56.987Z,4.05
2023-02-24T11:22:57.021Z,4.05
2023-02-24T11:23:57.047Z,4.05
2023-02-24T11:24:57.069Z,4.06
2023-02-24T11:25:57.097Z,4.05
2023-02-24T11:26:57.187Z,4.03
2023-02-24T11:27:57.174Z,4.02
2023-02-24T11:28:57.212Z,4.01
2023-02-24T11:29:57.245Z,4.02
2023-02-24T11:30:57.364Z,4.01
2023-02-24T11:31:57.404Z,3.99
2023-02-24T11:32:57.506Z,4
2023-02-24T11:33:57.376Z,4.01
2023-02-24T11:34:57.408Z,4.02
2023-02-24T11:35:57.441Z,4.02
2023-02-24T11:36:57.507Z,4.03
2023-02-24T11:37:57.509Z,4.04
2023-02-24T11:39:05.590Z,4.04
2023-02-24T11:39:57.569Z,4.06
2023-02-24T11:40:57.612Z,4.02
2023-02-24T11:41:57.662Z,4
2023-02-24T11:42:57.676Z,3.98
2023-02-24T11:43:57.709Z,3.98
2023-02-24T11:44:57.738Z,3.99
2023-02-24T11:45:57.765Z,4.01
2023-02-24T11:46:57.934Z,4.03
2023-02-24T11:47:57.826Z,4.03
2023-02-24T11:48:57.854Z,4
2023-02-24T11:49:57.887Z,4.01
2023-02-24T11:50:57.910Z,4.02
2023-02-24T11:51:57.951Z,4.01
2023-02-24T11:52:57.997Z,4
2023-02-24T11:53:58.003Z,4.01
2023-02-24T11:54:58.097Z,4.01
2023-02-24T11:55:58.085Z,4.03
2023-02-24T11:56:58.119Z,4.07
2023-02-24T11:57:58.146Z,4.08
2023-02-24T11:58:58.181Z,4.08
2023-02-24T11:59:58.219Z,4.03
2023-02-24T12:00:58.252Z,4.07
2023-02-24T12:01:58.302Z,4.08
2023-02-24T12:02:58.410Z,4.04
2023-02-24T12:03:58.359Z,3.98
2023-02-24T12:04:58.385Z,3.99
2023-02-24T12:05:58.495Z,3.99
2023-02-24T12:06:58.460Z,3.97
2023-02-24T12:07:58.497Z,3.99
2023-02-24T12:08:58.529Z,3.99
2023-02-24T12:10:14.178Z,3.98
2023-02-24T12:10:58.595Z,3.98
2023-02-24T12:11:58.633Z,4
2023-02-24T12:12:58.667Z,4.01
2023-02-24T12:13:58.705Z,3.99
2023-02-24T12:14:58.742Z,3.99
2023-02-24T12:15:58.852Z,4
2023-02-24T12:16:58.807Z,4
2023-02-24T12:17:58.839Z,4.01
2023-02-24T12:18:58.879Z,4
2023-02-24T12:19:58.908Z,3.99
2023-02-24T12:20:58.970Z,4
2023-02-24T12:21:58.978Z,4.01
2023-02-24T12:22:59.005Z,4
2023-02-24T12:23:59.036Z,3.99
2023-02-24T12:24:59.065Z,3.97
2023-02-24T12:25:59.130Z,3.95
2023-02-24T12:26:59.145Z,3.95
2023-02-24T12:27:59.175Z,3.99
2023-02-24T12:28:59.207Z,3.92
2023-02-24T12:29:59.246Z,3.91
2023-02-24T12:30:59.322Z,3.92
2023-02-24T12:31:59.373Z,3.91
2023-02-24T12:32:59.413Z,3.92
2023-02-24T12:33:59.396Z,3.91
2023-02-24T12:34:59.430Z,3.86
2023-02-24T12:35:59.461Z,3.87
2023-02-24T12:36:59.482Z,3.88
2023-02-24T12:37:59.520Z,3.88
2023-02-24T12:38:59.553Z,3.89
2023-02-24T12:39:59.585Z,3.93
2023-02-24T12:40:59.613Z,3.89
2023-02-24T12:41:59.640Z,3.9
2023-02-24T12:42:59.674Z,3.9
2023-02-24T12:43:59.706Z,3.91
2023-02-24T12:44:59.741Z,3.89
2023-02-24T12:45:59.834Z,3.89
2023-02-24T12:46:59.850Z,3.88
2023-02-24T12:47:59.833Z,3.86
2023-02-24T12:48:59.868Z,3.85
2023-02-24T12:49:59.902Z,3.84
2023-02-24T12:50:59.934Z,3.84
2023-02-24T12:51:59.990Z,3.84
2023-02-24T12:53:00.010Z,3.82
2023-02-24T12:54:00.030Z,3.84
2023-02-24T12:55:00.070Z,3.83
2023-02-24T12:56:00.177Z,3.81
2023-02-24T12:57:00.160Z,3.8
2023-02-24T12:58:00.191Z,3.8
2023-02-24T12:59:00.290Z,3.8
2023-02-24T13:00:00.240Z,3.79
2023-02-24T13:01:00.363Z,3.79
2023-02-24T13:02:00.386Z,3.77
2023-02-24T13:03:00.422Z,3.74
2023-02-24T13:04:00.381Z,3.75
2023-02-24T13:05:00.402Z,3.77
2023-02-24T13:06:00.435Z,3.77
2023-02-24T13:07:00.471Z,3.78
2023-02-24T13:08:00.510Z,3.78
2023-02-24T13:09:00.549Z,3.77
2023-02-24T13:10:00.588Z,3.77
2023-02-24T13:11:00.638Z,3.79
2023-02-24T13:12:00.657Z,3.78
2023-02-24T13:13:00.686Z,3.76
2023-02-24T13:14:00.727Z,3.76
2023-02-24T13:15:00.759Z,3.77
2023-02-24T13:16:00.780Z,3.79
2023-02-24T13:17:00.877Z,3.77
2023-02-24T13:18:00.852Z,3.77
2023-02-24T13:19:00.876Z,3.78
2023-02-24T13:20:00.926Z,3.8
2023-02-24T13:21:00.945Z,3.81
2023-02-24T13:22:01.015Z,3.8
2023-02-24T13:23:01.054Z,3.8